Bom Despacho, Brazil
Current Conditions -  °F | °C
As of 12:00 PM on Saturday 25 Oct 2014 (Local Time) from SBPR Reporting Station
Clear Clear  
Wind Chill: 82°   Ceiling: Unl
Heat Index: 82°   Visibility: 6mi
Dew Point: 59°   Wind: 1mph
Humidity: 45%   Direction: 280°W
Pressure: 30.06"   Gusts: NA
Location:  19.73°S, 45.26°W
Report Text: SBPR 251400Z 28001KT CAVOK 28/15 Q1018
Loading
Personal Weather Stations






























Interactive Weather Map
Tropical Storm Tracking
New forecast layout! Learn more

10-Day Weather Forecast

Advertisements
Track Severe Weather on mobile